sensor_id;sensor_type;location;lat;lon;timestamp;P1;durP1;ratioP1;P2;durP2;ratioP2
14849;SDS011;7517;48.400;11.770;2022-12-29T00:02:02;7.93;;;2.37;;
14849;SDS011;7517;48.400;11.770;2022-12-29T00:04:30;4.57;;;1.70;;
14849;SDS011;7517;48.400;11.770;2022-12-29T00:06:57;5.07;;;2.07;;
14849;SDS011;7517;48.400;11.770;2022-12-29T00:09:25;1.63;;;1.53;;
14849;SDS011;7517;48.400;11.770;2022-12-29T00:11:53;1.43;;;1.33;;
14849;SDS011;7517;48.400;11.770;2022-12-29T00:14:20;1.97;;;1.50;;
14849;SDS011;7517;48.400;11.770;2022-12-29T00:17:05;2.40;;;1.53;;
14849;SDS011;7517;48.400;11.770;2022-12-29T00:19:33;2.53;;;1.53;;
14849;SDS011;7517;48.400;11.770;2022-12-29T00:22:17;8.57;;;2.00;;
14849;SDS011;7517;48.400;11.770;2022-12-29T00:25:02;8.77;;;1.57;;
14849;SDS011;7517;48.400;11.770;2022-12-29T00:27:49;1.23;;;1.10;;
14849;SDS011;7517;48.400;11.770;2022-12-29T00:30:34;2.90;;;1.57;;
14849;SDS011;7517;48.400;11.770;2022-12-29T00:33:21;1.90;;;1.13;;
14849;SDS011;7517;48.400;11.770;2022-12-29T00:36:11;1.90;;;1.27;;
14849;SDS011;7517;48.400;11.770;2022-12-29T00:38:45;1.30;;;1.20;;
14849;SDS011;7517;48.400;11.770;2022-12-29T00:41:34;6.63;;;1.50;;
14849;SDS011;7517;48.400;11.770;2022-12-29T00:44:20;9.47;;;1.60;;
14849;SDS011;7517;48.400;11.770;2022-12-29T00:46:47;8.23;;;1.40;;
14849;SDS011;7517;48.400;11.770;2022-12-29T00:49:15;9.53;;;1.80;;
14849;SDS011;7517;48.400;11.770;2022-12-29T00:51:58;1.13;;;1.03;;
14849;SDS011;7517;48.400;11.770;2022-12-29T00:54:28;0.80;;;0.80;;
14849;SDS011;7517;48.400;11.770;2022-12-29T00:56:56;0.80;;;0.80;;
14849;SDS011;7517;48.400;11.770;2022-12-29T00:59:25;0.97;;;0.97;;
14849;SDS011;7517;48.400;11.770;2022-12-29T01:01:53;0.80;;;0.80;;
14849;SDS011;7517;48.400;11.770;2022-12-29T01:04:21;1.00;;;0.90;;
14849;SDS011;7517;48.400;11.770;2022-12-29T01:06:51;1.10;;;0.90;;
14849;SDS011;7517;48.400;11.770;2022-12-29T01:09:19;1.57;;;0.90;;
14849;SDS011;7517;48.400;11.770;2022-12-29T01:12:04;0.97;;;0.60;;
14849;SDS011;7517;48.400;11.770;2022-12-29T01:14:34;5.50;;;1.60;;
14849;SDS011;7517;48.400;11.770;2022-12-29T01:17:03;0.90;;;0.80;;
14849;SDS011;7517;48.400;11.770;2022-12-29T01:19:31;7.03;;;1.50;;
14849;SDS011;7517;48.400;11.770;2022-12-29T01:21:58;2.90;;;0.80;;
14849;SDS011;7517;48.400;11.770;2022-12-29T01:24:25;1.63;;;0.70;;
14849;SDS011;7517;48.400;11.770;2022-12-29T01:26:52;8.13;;;0.90;;
14849;SDS011;7517;48.400;11.770;2022-12-29T01:29:20;1.13;;;0.80;;
14849;SDS011;7517;48.400;11.770;2022-12-29T01:31:49;1.17;;;0.80;;
14849;SDS011;7517;48.400;11.770;2022-12-29T01:34:16;0.83;;;0.70;;
14849;SDS011;7517;48.400;11.770;2022-12-29T01:36:43;4.67;;;0.90;;
14849;SDS011;7517;48.400;11.770;2022-12-29T01:39:10;1.97;;;0.90;;
14849;SDS011;7517;48.400;11.770;2022-12-29T01:41:38;0.83;;;0.80;;
14849;SDS011;7517;48.400;11.770;2022-12-29T01:47:18;2.23;;;0.70;;
14849;SDS011;7517;48.400;11.770;2022-12-29T01:49:56;2.00;;;0.70;;
14849;SDS011;7517;48.400;11.770;2022-12-29T01:52:28;0.70;;;0.70;;
14849;SDS011;7517;48.400;11.770;2022-12-29T01:55:00;2.47;;;0.90;;
14849;SDS011;7517;48.400;11.770;2022-12-29T01:57:31;0.83;;;0.70;;
14849;SDS011;7517;48.400;11.770;2022-12-29T02:00:04;0.60;;;0.60;;
14849;SDS011;7517;48.400;11.770;2022-12-29T02:02:36;6.07;;;1.20;;
14849;SDS011;7517;48.400;11.770;2022-12-29T02:05:05;2.30;;;0.80;;
14849;SDS011;7517;48.400;11.770;2022-12-29T02:07:40;0.90;;;0.70;;
14849;SDS011;7517;48.400;11.770;2022-12-29T02:10:09;10.23;;;1.60;;
14849;SDS011;7517;48.400;11.770;2022-12-29T02:12:36;1.10;;;1.00;;
14849;SDS011;7517;48.400;11.770;2022-12-29T02:15:04;6.30;;;0.70;;
14849;SDS011;7517;48.400;11.770;2022-12-29T02:17:38;2.10;;;0.70;;
14849;SDS011;7517;48.400;11.770;2022-12-29T02:23:52;2.13;;;1.03;;
14849;SDS011;7517;48.400;11.770;2022-12-29T02:27:21;1.00;;;0.60;;
14849;SDS011;7517;48.400;11.770;2022-12-29T02:30:26;2.00;;;0.60;;
14849;SDS011;7517;48.400;11.770;2022-12-29T02:33:12;0.80;;;0.80;;
14849;SDS011;7517;48.400;11.770;2022-12-29T02:35:51;0.50;;;0.50;;
14849;SDS011;7517;48.400;11.770;2022-12-29T02:38:38;9.23;;;1.20;;
14849;SDS011;7517;48.400;11.770;2022-12-29T02:41:19;1.27;;;0.67;;
14849;SDS011;7517;48.400;11.770;2022-12-29T02:43:55;5.07;;;0.97;;
14849;SDS011;7517;48.400;11.770;2022-12-29T02:46:35;2.63;;;0.73;;
14849;SDS011;7517;48.400;11.770;2022-12-29T02:49:10;0.40;;;0.40;;
14849;SDS011;7517;48.400;11.770;2022-12-29T02:51:47;1.80;;;0.50;;
14849;SDS011;7517;48.400;11.770;2022-12-29T02:54:23;1.03;;;0.50;;
14849;SDS011;7517;48.400;11.770;2022-12-29T02:57:09;0.50;;;0.50;;
14849;SDS011;7517;48.400;11.770;2022-12-29T02:59:40;0.63;;;0.60;;
14849;SDS011;7517;48.400;11.770;2022-12-29T03:02:16;0.60;;;0.60;;
14849;SDS011;7517;48.400;11.770;2022-12-29T03:05:10;1.73;;;0.50;;
14849;SDS011;7517;48.400;11.770;2022-12-29T03:07:55;2.50;;;0.50;;
14849;SDS011;7517;48.400;11.770;2022-12-29T03:10:35;0.70;;;0.63;;
14849;SDS011;7517;48.400;11.770;2022-12-29T03:13:12;0.60;;;0.60;;
14849;SDS011;7517;48.400;11.770;2022-12-29T03:16:11;0.53;;;0.53;;
14849;SDS011;7517;48.400;11.770;2022-12-29T03:18:50;5.80;;;0.60;;
14849;SDS011;7517;48.400;11.770;2022-12-29T03:21:26;0.67;;;0.40;;
14849;SDS011;7517;48.400;11.770;2022-12-29T03:24:20;1.53;;;0.50;;
14849;SDS011;7517;48.400;11.770;2022-12-29T03:26:53;1.93;;;0.53;;
14849;SDS011;7517;48.400;11.770;2022-12-29T03:29:24;1.00;;;0.50;;
14849;SDS011;7517;48.400;11.770;2022-12-29T03:31:56;1.00;;;0.70;;
14849;SDS011;7517;48.400;11.770;2022-12-29T03:34:27;1.80;;;0.50;;
14849;SDS011;7517;48.400;11.770;2022-12-29T03:36:57;0.43;;;0.43;;
14849;SDS011;7517;48.400;11.770;2022-12-29T03:39:31;0.70;;;0.50;;
14849;SDS011;7517;48.400;11.770;2022-12-29T03:41:59;1.37;;;0.70;;
14849;SDS011;7517;48.400;11.770;2022-12-29T03:44:32;1.57;;;0.60;;
14849;SDS011;7517;48.400;11.770;2022-12-29T03:47:02;1.30;;;0.60;;
14849;SDS011;7517;48.400;11.770;2022-12-29T03:49:31;1.07;;;0.80;;
14849;SDS011;7517;48.400;11.770;2022-12-29T03:51:58;1.00;;;0.80;;
14849;SDS011;7517;48.400;11.770;2022-12-29T03:54:25;0.63;;;0.60;;
14849;SDS011;7517;48.400;11.770;2022-12-29T03:56:53;0.73;;;0.73;;
14849;SDS011;7517;48.400;11.770;2022-12-29T03:59:20;0.70;;;0.70;;
14849;SDS011;7517;48.400;11.770;2022-12-29T04:01:47;3.03;;;0.50;;
14849;SDS011;7517;48.400;11.770;2022-12-29T04:04:14;0.50;;;0.50;;
14849;SDS011;7517;48.400;11.770;2022-12-29T04:06:43;0.50;;;0.37;;
14849;SDS011;7517;48.400;11.770;2022-12-29T04:09:10;0.40;;;0.40;;
14849;SDS011;7517;48.400;11.770;2022-12-29T04:11:37;3.13;;;0.70;;
14849;SDS011;7517;48.400;11.770;2022-12-29T04:14:04;0.30;;;0.30;;
14849;SDS011;7517;48.400;11.770;2022-12-29T04:16:34;8.57;;;0.70;;
14849;SDS011;7517;48.400;11.770;2022-12-29T04:19:03;0.40;;;0.30;;
14849;SDS011;7517;48.400;11.770;2022-12-29T04:21:31;0.37;;;0.33;;
14849;SDS011;7517;48.400;11.770;2022-12-29T04:23:59;3.33;;;0.50;;
14849;SDS011;7517;48.400;11.770;2022-12-29T04:26:27;1.40;;;0.40;;
14849;SDS011;7517;48.400;11.770;2022-12-29T04:28:54;0.80;;;0.40;;
14849;SDS011;7517;48.400;11.770;2022-12-29T04:31:21;0.40;;;0.40;;
14849;SDS011;7517;48.400;11.770;2022-12-29T04:33:48;0.43;;;0.43;;
14849;SDS011;7517;48.400;11.770;2022-12-29T04:36:15;1.40;;;0.70;;
14849;SDS011;7517;48.400;11.770;2022-12-29T04:38:42;0.60;;;0.40;;
14849;SDS011;7517;48.400;11.770;2022-12-29T04:41:11;4.13;;;0.80;;
14849;SDS011;7517;48.400;11.770;2022-12-29T04:43:38;0.20;;;0.20;;
14849;SDS011;7517;48.400;11.770;2022-12-29T04:46:05;0.30;;;0.30;;
14849;SDS011;7517;48.400;11.770;2022-12-29T04:48:32;0.77;;;0.20;;
14849;SDS011;7517;48.400;11.770;2022-12-29T04:50:59;0.30;;;0.30;;
14849;SDS011;7517;48.400;11.770;2022-12-29T04:53:26;2.90;;;0.60;;
14849;SDS011;7517;48.400;11.770;2022-12-29T04:55:54;0.37;;;0.30;;
14849;SDS011;7517;48.400;11.770;2022-12-29T04:58:23;1.20;;;0.40;;
14849;SDS011;7517;48.400;11.770;2022-12-29T05:00:50;2.77;;;0.40;;
14849;SDS011;7517;48.400;11.770;2022-12-29T05:03:18;0.97;;;0.40;;
14849;SDS011;7517;48.400;11.770;2022-12-29T05:05:45;0.47;;;0.40;;
14849;SDS011;7517;48.400;11.770;2022-12-29T05:08:12;0.80;;;0.47;;
14849;SDS011;7517;48.400;11.770;2022-12-29T05:10:39;1.33;;;0.63;;
14849;SDS011;7517;48.400;11.770;2022-12-29T05:13:10;0.40;;;0.40;;
14849;SDS011;7517;48.400;11.770;2022-12-29T05:15:38;2.07;;;0.40;;
14849;SDS011;7517;48.400;11.770;2022-12-29T05:18:05;2.43;;;0.43;;
14849;SDS011;7517;48.400;11.770;2022-12-29T05:20:32;2.40;;;0.50;;
14849;SDS011;7517;48.400;11.770;2022-12-29T05:22:59;0.30;;;0.30;;
14849;SDS011;7517;48.400;11.770;2022-12-29T05:25:26;0.60;;;0.40;;
14849;SDS011;7517;48.400;11.770;2022-12-29T05:27:53;0.40;;;0.40;;
14849;SDS011;7517;48.400;11.770;2022-12-29T05:30:20;0.93;;;0.30;;
14849;SDS011;7517;48.400;11.770;2022-12-29T05:32:49;0.53;;;0.53;;
14849;SDS011;7517;48.400;11.770;2022-12-29T05:35:16;1.13;;;0.40;;
14849;SDS011;7517;48.400;11.770;2022-12-29T05:37:43;0.33;;;0.33;;
14849;SDS011;7517;48.400;11.770;2022-12-29T05:40:10;0.60;;;0.60;;
14849;SDS011;7517;48.400;11.770;2022-12-29T05:42:38;7.60;;;0.83;;
14849;SDS011;7517;48.400;11.770;2022-12-29T05:45:06;0.40;;;0.23;;
14849;SDS011;7517;48.400;11.770;2022-12-29T05:47:34;0.33;;;0.33;;
14849;SDS011;7517;48.400;11.770;2022-12-29T05:50:03;0.50;;;0.50;;
14849;SDS011;7517;48.400;11.770;2022-12-29T05:52:31;0.90;;;0.30;;
14849;SDS011;7517;48.400;11.770;2022-12-29T05:54:58;2.33;;;0.50;;
14849;SDS011;7517;48.400;11.770;2022-12-29T05:57:25;0.30;;;0.30;;
14849;SDS011;7517;48.400;11.770;2022-12-29T05:59:52;0.53;;;0.47;;
14849;SDS011;7517;48.400;11.770;2022-12-29T06:02:19;0.40;;;0.40;;
14849;SDS011;7517;48.400;11.770;2022-12-29T06:04:46;0.83;;;0.50;;
14849;SDS011;7517;48.400;11.770;2022-12-29T06:07:15;0.47;;;0.40;;
14849;SDS011;7517;48.400;11.770;2022-12-29T06:09:42;2.87;;;0.50;;
14849;SDS011;7517;48.400;11.770;2022-12-29T06:12:09;0.40;;;0.40;;
14849;SDS011;7517;48.400;11.770;2022-12-29T06:14:36;0.40;;;0.30;;
14849;SDS011;7517;48.400;11.770;2022-12-29T06:17:03;3.73;;;0.97;;
14849;SDS011;7517;48.400;11.770;2022-12-29T06:19:30;0.80;;;0.50;;
14849;SDS011;7517;48.400;11.770;2022-12-29T06:21:57;1.50;;;0.30;;
14849;SDS011;7517;48.400;11.770;2022-12-29T06:24:26;1.07;;;0.43;;
14849;SDS011;7517;48.400;11.770;2022-12-29T06:26:53;8.03;;;0.97;;
14849;SDS011;7517;48.400;11.770;2022-12-29T06:29:20;1.23;;;0.40;;
14849;SDS011;7517;48.400;11.770;2022-12-29T06:31:47;1.93;;;0.70;;
14849;SDS011;7517;48.400;11.770;2022-12-29T06:34:16;0.50;;;0.40;;
14849;SDS011;7517;48.400;11.770;2022-12-29T06:36:43;2.73;;;0.60;;
14849;SDS011;7517;48.400;11.770;2022-12-29T06:39:10;1.17;;;0.40;;
14849;SDS011;7517;48.400;11.770;2022-12-29T06:41:39;5.63;;;0.53;;
14849;SDS011;7517;48.400;11.770;2022-12-29T06:44:06;0.40;;;0.40;;
14849;SDS011;7517;48.400;11.770;2022-12-29T06:46:33;0.20;;;0.20;;
14849;SDS011;7517;48.400;11.770;2022-12-29T06:49:00;0.40;;;0.40;;
14849;SDS011;7517;48.400;11.770;2022-12-29T06:51:27;0.80;;;0.60;;
14849;SDS011;7517;48.400;11.770;2022-12-29T06:53:55;0.40;;;0.40;;
14849;SDS011;7517;48.400;11.770;2022-12-29T06:56:22;0.70;;;0.40;;
14849;SDS011;7517;48.400;11.770;2022-12-29T06:58:50;2.27;;;0.80;;
14849;SDS011;7517;48.400;11.770;2022-12-29T07:01:18;0.63;;;0.40;;
14849;SDS011;7517;48.400;11.770;2022-12-29T07:03:45;0.67;;;0.40;;
14849;SDS011;7517;48.400;11.770;2022-12-29T07:06:12;0.30;;;0.30;;
14849;SDS011;7517;48.400;11.770;2022-12-29T07:08:39;0.50;;;0.40;;
14849;SDS011;7517;48.400;11.770;2022-12-29T07:11:06;0.60;;;0.60;;
14849;SDS011;7517;48.400;11.770;2022-12-29T07:13:33;0.50;;;0.50;;
14849;SDS011;7517;48.400;11.770;2022-12-29T07:16:05;0.80;;;0.60;;
14849;SDS011;7517;48.400;11.770;2022-12-29T07:18:34;0.50;;;0.40;;
14849;SDS011;7517;48.400;11.770;2022-12-29T07:21:01;1.20;;;0.50;;
14849;SDS011;7517;48.400;11.770;2022-12-29T07:23:29;0.70;;;0.70;;
14849;SDS011;7517;48.400;11.770;2022-12-29T07:26:00;0.50;;;0.50;;
14849;SDS011;7517;48.400;11.770;2022-12-29T07:28:28;0.60;;;0.60;;
14849;SDS011;7517;48.400;11.770;2022-12-29T07:30:55;6.60;;;1.10;;
14849;SDS011;7517;48.400;11.770;2022-12-29T07:33:24;1.90;;;0.60;;
14849;SDS011;7517;48.400;11.770;2022-12-29T07:35:51;0.90;;;0.70;;
14849;SDS011;7517;48.400;11.770;2022-12-29T07:38:18;0.50;;;0.40;;
14849;SDS011;7517;48.400;11.770;2022-12-29T07:40:45;0.73;;;0.57;;
14849;SDS011;7517;48.400;11.770;2022-12-29T07:43:12;0.60;;;0.40;;
14849;SDS011;7517;48.400;11.770;2022-12-29T07:45:40;0.40;;;0.30;;
14849;SDS011;7517;48.400;11.770;2022-12-29T07:48:07;1.23;;;0.50;;
14849;SDS011;7517;48.400;11.770;2022-12-29T07:50:35;0.90;;;0.70;;
14849;SDS011;7517;48.400;11.770;2022-12-29T07:53:03;0.67;;;0.50;;
14849;SDS011;7517;48.400;11.770;2022-12-29T07:55:30;0.60;;;0.50;;
14849;SDS011;7517;48.400;11.770;2022-12-29T07:57:57;2.23;;;0.90;;
14849;SDS011;7517;48.400;11.770;2022-12-29T08:00:25;0.83;;;0.83;;
14849;SDS011;7517;48.400;11.770;2022-12-29T08:02:52;2.20;;;0.60;;
14849;SDS011;7517;48.400;11.770;2022-12-29T08:05:19;1.90;;;0.60;;
14849;SDS011;7517;48.400;11.770;2022-12-29T08:07:48;0.73;;;0.50;;
14849;SDS011;7517;48.400;11.770;2022-12-29T08:10:15;4.50;;;1.20;;
14849;SDS011;7517;48.400;11.770;2022-12-29T08:12:42;0.87;;;0.50;;
14849;SDS011;7517;48.400;11.770;2022-12-29T08:15:10;0.93;;;0.60;;
14849;SDS011;7517;48.400;11.770;2022-12-29T08:17:38;1.27;;;0.50;;
14849;SDS011;7517;48.400;11.770;2022-12-29T08:20:09;0.50;;;0.50;;
14849;SDS011;7517;48.400;11.770;2022-12-29T08:22:36;0.70;;;0.60;;
14849;SDS011;7517;48.400;11.770;2022-12-29T08:25:05;0.50;;;0.50;;
14849;SDS011;7517;48.400;11.770;2022-12-29T08:27:33;0.80;;;0.77;;
14849;SDS011;7517;48.400;11.770;2022-12-29T08:30:00;1.27;;;0.70;;
14849;SDS011;7517;48.400;11.770;2022-12-29T08:32:28;0.60;;;0.60;;
14849;SDS011;7517;48.400;11.770;2022-12-29T08:34:55;0.70;;;0.70;;
14849;SDS011;7517;48.400;11.770;2022-12-29T08:37:22;1.90;;;1.00;;
14849;SDS011;7517;48.400;11.770;2022-12-29T08:39:49;0.67;;;0.67;;
14849;SDS011;7517;48.400;11.770;2022-12-29T08:42:18;1.73;;;0.83;;
14849;SDS011;7517;48.400;11.770;2022-12-29T08:44:45;1.30;;;1.20;;
14849;SDS011;7517;48.400;11.770;2022-12-29T08:47:12;1.10;;;0.90;;
14849;SDS011;7517;48.400;11.770;2022-12-29T08:49:39;2.30;;;1.30;;
14849;SDS011;7517;48.400;11.770;2022-12-29T08:52:07;1.93;;;0.90;;
14849;SDS011;7517;48.400;11.770;2022-12-29T08:54:34;3.87;;;1.00;;
14849;SDS011;7517;48.400;11.770;2022-12-29T08:57:01;5.03;;;1.00;;
14849;SDS011;7517;48.400;11.770;2022-12-29T08:59:30;0.80;;;0.80;;
14849;SDS011;7517;48.400;11.770;2022-12-29T09:01:57;3.13;;;1.00;;
14849;SDS011;7517;48.400;11.770;2022-12-29T09:04:25;1.67;;;1.20;;
14849;SDS011;7517;48.400;11.770;2022-12-29T09:06:52;1.83;;;1.07;;
14849;SDS011;7517;48.400;11.770;2022-12-29T09:09:19;1.80;;;1.27;;
14849;SDS011;7517;48.400;11.770;2022-12-29T09:11:47;1.20;;;1.10;;
14849;SDS011;7517;48.400;11.770;2022-12-29T09:14:14;2.33;;;0.80;;
14849;SDS011;7517;48.400;11.770;2022-12-29T09:16:43;2.47;;;0.77;;
14849;SDS011;7517;48.400;11.770;2022-12-29T09:19:27;0.80;;;0.73;;
14849;SDS011;7517;48.400;11.770;2022-12-29T09:21:54;1.50;;;0.60;;
14849;SDS011;7517;48.400;11.770;2022-12-29T09:24:22;0.70;;;0.60;;
14849;SDS011;7517;48.400;11.770;2022-12-29T09:26:49;0.60;;;0.60;;
14849;SDS011;7517;48.400;11.770;2022-12-29T09:29:16;1.17;;;0.87;;
14849;SDS011;7517;48.400;11.770;2022-12-29T09:31:44;1.47;;;0.90;;
14849;SDS011;7517;48.400;11.770;2022-12-29T09:34:11;0.80;;;0.57;;
14849;SDS011;7517;48.400;11.770;2022-12-29T09:36:39;3.93;;;0.60;;
14849;SDS011;7517;48.400;11.770;2022-12-29T09:39:06;1.00;;;0.80;;
14849;SDS011;7517;48.400;11.770;2022-12-29T09:41:34;1.67;;;0.70;;
14849;SDS011;7517;48.400;11.770;2022-12-29T09:44:13;0.80;;;0.80;;
14849;SDS011;7517;48.400;11.770;2022-12-29T09:46:50;0.70;;;0.60;;
14849;SDS011;7517;48.400;11.770;2022-12-29T09:49:23;0.60;;;0.57;;
14849;SDS011;7517;48.400;11.770;2022-12-29T09:51:59;1.00;;;0.50;;
14849;SDS011;7517;48.400;11.770;2022-12-29T09:54:37;1.20;;;0.70;;
14849;SDS011;7517;48.400;11.770;2022-12-29T09:57:16;0.40;;;0.40;;
14849;SDS011;7517;48.400;11.770;2022-12-29T09:59:50;1.63;;;0.60;;
14849;SDS011;7517;48.400;11.770;2022-12-29T10:02:32;0.80;;;0.80;;
14849;SDS011;7517;48.400;11.770;2022-12-29T10:05:12;1.40;;;0.70;;
14849;SDS011;7517;48.400;11.770;2022-12-29T10:07:57;2.00;;;0.87;;
14849;SDS011;7517;48.400;11.770;2022-12-29T10:10:40;1.33;;;0.60;;
14849;SDS011;7517;48.400;11.770;2022-12-29T10:13:22;0.93;;;0.70;;
14849;SDS011;7517;48.400;11.770;2022-12-29T10:16:02;0.87;;;0.70;;
14849;SDS011;7517;48.400;11.770;2022-12-29T10:18:45;1.27;;;0.70;;
14849;SDS011;7517;48.400;11.770;2022-12-29T10:21:46;0.57;;;0.57;;
14849;SDS011;7517;48.400;11.770;2022-12-29T10:24:29;1.23;;;0.53;;
14849;SDS011;7517;48.400;11.770;2022-12-29T10:27:01;1.33;;;0.80;;
14849;SDS011;7517;48.400;11.770;2022-12-29T10:29:32;2.37;;;0.60;;
14849;SDS011;7517;48.400;11.770;2022-12-29T10:32:06;1.70;;;0.50;;
14849;SDS011;7517;48.400;11.770;2022-12-29T10:34:49;1.67;;;0.87;;
14849;SDS011;7517;48.400;11.770;2022-12-29T10:37:34;0.50;;;0.50;;
14849;SDS011;7517;48.400;11.770;2022-12-29T10:40:13;0.93;;;0.57;;
14849;SDS011;7517;48.400;11.770;2022-12-29T10:42:51;1.10;;;0.53;;
14849;SDS011;7517;48.400;11.770;2022-12-29T10:45:21;0.90;;;0.63;;
14849;SDS011;7517;48.400;11.770;2022-12-29T10:47:56;1.80;;;0.50;;
14849;SDS011;7517;48.400;11.770;2022-12-29T10:50:30;0.60;;;0.57;;
14849;SDS011;7517;48.400;11.770;2022-12-29T10:52:59;0.63;;;0.40;;
14849;SDS011;7517;48.400;11.770;2022-12-29T10:55:32;0.93;;;0.60;;
14849;SDS011;7517;48.400;11.770;2022-12-29T10:58:03;0.63;;;0.60;;
14849;SDS011;7517;48.400;11.770;2022-12-29T11:00:33;1.77;;;0.90;;
14849;SDS011;7517;48.400;11.770;2022-12-29T11:06:11;0.30;;;0.30;;
14849;SDS011;7517;48.400;11.770;2022-12-29T11:08:52;4.23;;;0.83;;
14849;SDS011;7517;48.400;11.770;2022-12-29T11:11:24;0.60;;;0.30;;
14849;SDS011;7517;48.400;11.770;2022-12-29T11:13:58;0.50;;;0.50;;
14849;SDS011;7517;48.400;11.770;2022-12-29T11:16:36;1.17;;;0.50;;
14849;SDS011;7517;48.400;11.770;2022-12-29T11:19:03;2.40;;;0.67;;
14849;SDS011;7517;48.400;11.770;2022-12-29T11:21:33;0.60;;;0.50;;
14849;SDS011;7517;48.400;11.770;2022-12-29T11:24:14;0.80;;;0.60;;
14849;SDS011;7517;48.400;11.770;2022-12-29T11:26:48;0.60;;;0.50;;
14849;SDS011;7517;48.400;11.770;2022-12-29T11:29:26;0.40;;;0.40;;
14849;SDS011;7517;48.400;11.770;2022-12-29T11:31:56;4.20;;;0.70;;
14849;SDS011;7517;48.400;11.770;2022-12-29T11:34:26;0.60;;;0.60;;
14849;SDS011;7517;48.400;11.770;2022-12-29T11:36:59;1.00;;;0.60;;
14849;SDS011;7517;48.400;11.770;2022-12-29T11:39:32;1.43;;;0.60;;
14849;SDS011;7517;48.400;11.770;2022-12-29T11:42:06;1.07;;;0.90;;
14849;SDS011;7517;48.400;11.770;2022-12-29T11:44:44;1.00;;;0.57;;
14849;SDS011;7517;48.400;11.770;2022-12-29T11:47:22;0.80;;;0.80;;
14849;SDS011;7517;48.400;11.770;2022-12-29T11:49:55;0.97;;;0.80;;
14849;SDS011;7517;48.400;11.770;2022-12-29T11:52:28;0.50;;;0.50;;
14849;SDS011;7517;48.400;11.770;2022-12-29T11:55:01;1.60;;;0.60;;
14849;SDS011;7517;48.400;11.770;2022-12-29T11:57:32;0.40;;;0.40;;
14849;SDS011;7517;48.400;11.770;2022-12-29T12:00:03;0.93;;;0.50;;
14849;SDS011;7517;48.400;11.770;2022-12-29T12:02:44;0.50;;;0.50;;
14849;SDS011;7517;48.400;11.770;2022-12-29T12:05:21;0.73;;;0.40;;
14849;SDS011;7517;48.400;11.770;2022-12-29T12:07:59;2.27;;;0.70;;
14849;SDS011;7517;48.400;11.770;2022-12-29T12:10:37;4.23;;;0.80;;
14849;SDS011;7517;48.400;11.770;2022-12-29T12:13:17;0.57;;;0.50;;
14849;SDS011;7517;48.400;11.770;2022-12-29T12:15:54;0.50;;;0.50;;
14849;SDS011;7517;48.400;11.770;2022-12-29T12:18:34;0.30;;;0.30;;
14849;SDS011;7517;48.400;11.770;2022-12-29T12:21:12;1.03;;;0.73;;
14849;SDS011;7517;48.400;11.770;2022-12-29T12:23:56;1.83;;;0.90;;
14849;SDS011;7517;48.400;11.770;2022-12-29T12:26:45;0.83;;;0.60;;
14849;SDS011;7517;48.400;11.770;2022-12-29T12:29:28;1.00;;;0.80;;
14849;SDS011;7517;48.400;11.770;2022-12-29T12:32:06;2.13;;;1.00;;
14849;SDS011;7517;48.400;11.770;2022-12-29T12:34:43;1.10;;;0.83;;
14849;SDS011;7517;48.400;11.770;2022-12-29T12:40:28;1.47;;;0.73;;
14849;SDS011;7517;48.400;11.770;2022-12-29T12:43:12;1.10;;;1.00;;
14849;SDS011;7517;48.400;11.770;2022-12-29T12:46:06;1.20;;;1.10;;
14849;SDS011;7517;48.400;11.770;2022-12-29T12:49:35;4.37;;;1.23;;
14849;SDS011;7517;48.400;11.770;2022-12-29T12:53:10;1.50;;;1.40;;
14849;SDS011;7517;48.400;11.770;2022-12-29T12:56:07;1.33;;;0.90;;
14849;SDS011;7517;48.400;11.770;2022-12-29T12:58:54;1.33;;;1.23;;
14849;SDS011;7517;48.400;11.770;2022-12-29T13:01:34;1.03;;;0.50;;
14849;SDS011;7517;48.400;11.770;2022-12-29T13:04:19;1.33;;;0.60;;
14849;SDS011;7517;48.400;11.770;2022-12-29T13:07:36;1.20;;;0.70;;
14849;SDS011;7517;48.400;11.770;2022-12-29T13:10:22;0.50;;;0.40;;
14849;SDS011;7517;48.400;11.770;2022-12-29T13:13:16;0.50;;;0.50;;
14849;SDS011;7517;48.400;11.770;2022-12-29T13:16:09;0.77;;;0.40;;
14849;SDS011;7517;48.400;11.770;2022-12-29T13:18:49;0.50;;;0.40;;
14849;SDS011;7517;48.400;11.770;2022-12-29T13:21:30;0.50;;;0.50;;
14849;SDS011;7517;48.400;11.770;2022-12-29T13:24:19;0.87;;;0.63;;
14849;SDS011;7517;48.400;11.770;2022-12-29T13:26:59;1.03;;;0.70;;
14849;SDS011;7517;48.400;11.770;2022-12-29T13:29:40;1.03;;;0.83;;
14849;SDS011;7517;48.400;11.770;2022-12-29T13:32:21;1.70;;;1.30;;
14849;SDS011;7517;48.400;11.770;2022-12-29T13:35:09;2.90;;;1.83;;
14849;SDS011;7517;48.400;11.770;2022-12-29T13:37:52;3.20;;;1.63;;
14849;SDS011;7517;48.400;11.770;2022-12-29T13:40:26;1.37;;;0.97;;
14849;SDS011;7517;48.400;11.770;2022-12-29T13:43:00;0.90;;;0.80;;
14849;SDS011;7517;48.400;11.770;2022-12-29T13:45:31;0.87;;;0.87;;
14849;SDS011;7517;48.400;11.770;2022-12-29T13:48:01;1.07;;;0.67;;
14849;SDS011;7517;48.400;11.770;2022-12-29T13:50:36;3.20;;;0.93;;
14849;SDS011;7517;48.400;11.770;2022-12-29T13:53:10;1.73;;;0.90;;
14849;SDS011;7517;48.400;11.770;2022-12-29T13:55:47;0.97;;;0.40;;
14849;SDS011;7517;48.400;11.770;2022-12-29T13:58:24;0.50;;;0.30;;
14849;SDS011;7517;48.400;11.770;2022-12-29T14:01:00;0.83;;;0.50;;
14849;SDS011;7517;48.400;11.770;2022-12-29T14:03:42;0.37;;;0.37;;
14849;SDS011;7517;48.400;11.770;2022-12-29T14:06:18;0.50;;;0.43;;
14849;SDS011;7517;48.400;11.770;2022-12-29T14:08:50;0.70;;;0.70;;
14849;SDS011;7517;48.400;11.770;2022-12-29T14:11:22;3.17;;;0.57;;
14849;SDS011;7517;48.400;11.770;2022-12-29T14:13:56;0.70;;;0.60;;
14849;SDS011;7517;48.400;11.770;2022-12-29T14:16:27;1.37;;;0.50;;
14849;SDS011;7517;48.400;11.770;2022-12-29T14:19:03;0.37;;;0.37;;
14849;SDS011;7517;48.400;11.770;2022-12-29T14:21:39;1.13;;;0.33;;
14849;SDS011;7517;48.400;11.770;2022-12-29T14:24:27;0.40;;;0.30;;
14849;SDS011;7517;48.400;11.770;2022-12-29T14:30:48;2.23;;;0.60;;
14849;SDS011;7517;48.400;11.770;2022-12-29T14:33:19;1.23;;;0.47;;
14849;SDS011;7517;48.400;11.770;2022-12-29T14:35:51;3.87;;;0.57;;
14849;SDS011;7517;48.400;11.770;2022-12-29T14:38:24;0.50;;;0.50;;
14849;SDS011;7517;48.400;11.770;2022-12-29T14:43:53;1.13;;;1.03;;
14849;SDS011;7517;48.400;11.770;2022-12-29T14:46:25;2.03;;;0.70;;
14849;SDS011;7517;48.400;11.770;2022-12-29T14:49:16;2.83;;;1.03;;
14849;SDS011;7517;48.400;11.770;2022-12-29T14:51:48;2.40;;;1.00;;
14849;SDS011;7517;48.400;11.770;2022-12-29T14:54:34;1.10;;;1.00;;
14849;SDS011;7517;48.400;11.770;2022-12-29T14:57:22;2.07;;;1.00;;
14849;SDS011;7517;48.400;11.770;2022-12-29T14:59:57;1.20;;;0.90;;
14849;SDS011;7517;48.400;11.770;2022-12-29T15:02:41;1.87;;;0.77;;
14849;SDS011;7517;48.400;11.770;2022-12-29T15:08:11;6.80;;;0.83;;
14849;SDS011;7517;48.400;11.770;2022-12-29T15:10:42;0.70;;;0.60;;
14849;SDS011;7517;48.400;11.770;2022-12-29T15:13:21;1.70;;;0.70;;
14849;SDS011;7517;48.400;11.770;2022-12-29T15:15:51;1.33;;;0.70;;
14849;SDS011;7517;48.400;11.770;2022-12-29T15:18:23;2.20;;;1.20;;
14849;SDS011;7517;48.400;11.770;2022-12-29T15:20:55;0.60;;;0.60;;
14849;SDS011;7517;48.400;11.770;2022-12-29T15:23:25;5.40;;;1.13;;
14849;SDS011;7517;48.400;11.770;2022-12-29T15:25:55;2.30;;;1.47;;
14849;SDS011;7517;48.400;11.770;2022-12-29T15:28:25;1.07;;;1.00;;
14849;SDS011;7517;48.400;11.770;2022-12-29T15:31:03;1.57;;;1.40;;
14849;SDS011;7517;48.400;11.770;2022-12-29T15:33:37;4.23;;;1.27;;
14849;SDS011;7517;48.400;11.770;2022-12-29T15:36:11;0.90;;;0.90;;
14849;SDS011;7517;48.400;11.770;2022-12-29T15:38:44;4.50;;;1.73;;
14849;SDS011;7517;48.400;11.770;2022-12-29T15:41:18;1.80;;;1.30;;
14849;SDS011;7517;48.400;11.770;2022-12-29T15:43:55;2.90;;;2.60;;
14849;SDS011;7517;48.400;11.770;2022-12-29T15:46:40;2.27;;;1.77;;
14849;SDS011;7517;48.400;11.770;2022-12-29T15:49:08;1.80;;;1.63;;